Wind EuroAirport

Messzeit Windrichtung Windgeschwindigkeit [Knoten] Rückenwind Nordpiste [Knoten] METAR
2018-04-25 00:00 S 170° 3 - LFSB 242200Z 17003KT CAVOK 13/09 Q1016 NOSIG
2018-04-24 23:30 - 2 - LFSB 242130Z VRB02KT CAVOK 14/09 Q1016 NOSIG
2018-04-24 23:00 - 2 - LFSB 242100Z VRB02KT CAVOK 14/09 Q1016 NOSIG
2018-04-24 22:30 S 190° 3 - LFSB 242030Z 19003KT CAVOK 15/10 Q1016 NOSIG
2018-04-24 22:00 SW 220° 2 - LFSB 242000Z 22002KT CAVOK 16/09 Q1016 NOSIG
2018-04-24 21:30 - 2 - LFSB 241930Z VRB02KT CAVOK 15/09 Q1016 NOSIG
2018-04-24 21:00 W 290° 3 2 LFSB 241900Z 29003KT CAVOK 17/09 Q1016 NOSIG
2018-04-24 20:30 NW 300° 4 3 LFSB 241830Z 30004KT CAVOK 18/08 Q1016 NOSIG
2018-04-24 20:00 W 280° 5 3 LFSB 241800Z 28005KT CAVOK 19/09 Q1016 NOSIG
2018-04-24 19:30 W 290° 6 4 LFSB 241730Z 29006KT CAVOK 21/09 Q1016 NOSIG
2018-04-24 19:00 W 280° 8 4 LFSB 241700Z 28008KT CAVOK 22/10 Q1016 NOSIG
2018-04-24 18:30 NW 300°
(270°–330°)
10 3–10 LFSB 241630Z 30010KT 270V330 CAVOK 22/09 Q1016 NOSIG
2018-04-24 18:00 W 270°
(240°–310°)
7 0–6 LFSB 241600Z 27007KT 240V310 CAVOK 23/09 Q1016 NOSIG
2018-04-24 17:30 NW 300°
(250°–350°)
8 0–8 LFSB 241530Z 30008KT 250V350 CAVOK 23/09 Q1016 NOSIG
2018-04-24 16:30 W 280°
(240°–310°)
9 0–8 LFSB 241430Z 28009KT 240V310 9999 FEW053 BKN260 23/08 Q1017 NOSIG
2018-04-24 16:00 W 280°
(240°–320°)
11 0–10 LFSB 241400Z 28011KT 240V320 9999 FEW053 BKN260 23/08 Q1017 NOSIG
2018-04-24 15:30 NW 310° 10 9 LFSB 241330Z 31010KT 9999 FEW053 BKN260 23/09 Q1018 NOSIG
2018-04-24 15:00 NW 310°
(260°–350°)
10 2–10 LFSB 241300Z 31010KT 260V350 9999 SCT053 BKN260 23/09 Q1018 NOSIG
2018-04-24 14:30 NW 320°
(280°–350°)
10 5–10 LFSB 241230Z 32010KT 280V350 9999 SCT046 BKN260 22/09 Q1018 NOSIG
2018-04-24 14:00 NW 310°
(240°–20°)
7 0–7 LFSB 241200Z 31007KT 240V020 9999 SCT043 BKN260 22/10 Q1019 NOSIG
2018-04-24 13:30 W 260°
(180°–300°)
9 0–7 LFSB 241130Z 26009KT 180V300 9999 SCT040 BKN260 21/10 Q1019 NOSIG
2018-04-24 13:00 W 290°
(260°–320°)
8 1–8 LFSB 241100Z 29008KT 260V320 9999 SCT036 BKN260 21/12 Q1019 NOSIG
2018-04-24 12:30 W 290° 7 4 LFSB 241030Z 29007KT 9999 SCT033 BKN260 21/10 Q1020 NOSIG
2018-04-24 12:00 NW 300°
(260°–360°)
3 1–3 LFSB 241000Z 30003KT 260V360 9999 SCT030 BKN260 19/10 Q1020 NOSIG
2018-04-24 11:30 W 280°
(240°–350°)
5 0–5 LFSB 240930Z 28005KT 240V350 9999 SCT025 BKN260 19/11 Q1020 NOSIG
2018-04-24 11:00 O 100°
(50°–220°)
3 0–1 LFSB 240900Z 10003KT 050V220 9999 SCT025 BKN260 19/11 Q1020 NOSIG
2018-04-24 10:30 SO 140°
(90°–190°)
3 - LFSB 240830Z 14003KT 090V190 9999 SCT023 BKN260 18/12 Q1020 NOSIG
2018-04-24 10:00 - 1 - LFSB 240800Z VRB01KT 9999 FEW025 BKN260 18/11 Q1021 NOSIG
2018-04-24 09:30 O 100°
(40°–140°)
3 0–2 LFSB 240730Z 10003KT 040V140 9999 FEW023 BKN260 16/11 Q1021 NOSIG
2018-04-24 09:00 SO 150°
(120°–180°)
4 - LFSB 240700Z 15004KT 120V180 9999 FEW025 BKN260 15/12 Q1021 TEMPO BKN013
2018-04-24 08:30 SO 150° 5 - LFSB 240630Z 15005KT 9999 FEW025 SCT260 15/12 Q1021 TEMPO BKN013
2018-04-24 08:00 - 3 - LFSB 240600Z VRB03KT 9999 SCT025 SCT260 13/11 Q1021 TEMPO BKN013
2018-04-24 07:30 - 2 - LFSB 240530Z VRB02KT 9999 SCT023 BKN260 11/10 Q1020 TEMPO BKN013
2018-04-24 07:00 SO 150°
(120°–180°)
3 - LFSB 240500Z 15003KT 120V180 9999 FEW021 BKN260 11/10 Q1020 TEMPO BKN013
2018-04-24 06:30 W 250° 1 - LFSB 240430Z 25001KT 9999 FEW021 SCT043 11/10 Q1020 TEMPO BKN013
2018-04-24 06:00 - 0 - LFSB 240400Z 00000KT 9999 SCT043 10/09 Q1020 TEMPO 4000 MIFG
2018-04-24 05:30 S 190° 4 - LFSB 240330Z 19004KT 9999 FEW016 SCT044 10/09 Q1020 TEMPO 4000 MIFG
2018-04-24 05:00 - 2 - LFSB 240300Z VRB02KT 8000 FEW003 SCT044 10/09 Q1020 TEMPO 4000 MIFG
2018-04-24 04:30 - 2 - LFSB 240230Z VRB02KT 8000 FEW003 SCT260 11/10 Q1020 TEMPO 4000 MIFG
2018-04-24 04:00 SW 210° 3 - LFSB 240200Z AUTO 21003KT 7000 1500 FEW005/// SCT025/// BKN033/// 12/11 Q1020 TEMPO BKN013
2018-04-24 03:30 SW 220° 2 - LFSB 240130Z AUTO 22002KT 6000 1300 R15/P2000 R33/P2000 FEW005/// SCT027/// 11/10 Q1020 TEMPO BKN013
2018-04-24 03:00 - 0 - LFSB 240100Z AUTO 00000KT 9999 FEW030/// BKN044/// BKN052/// 13/12 Q1020 TEMPO BKN013
2018-04-24 02:30 - 0 - LFSB 240030Z AUTO 00000KT 9999 FEW029/// OVC040/// 13/12 Q1020 TEMPO BKN013
2018-04-24 02:00 S 170° 3 - LFSB 240000Z AUTO 17003KT 9999 BKN032 OVC038 13/12 Q1020 TEMPO BKN013
2018-04-24 01:30 SW 220° 3 - LFSB 232330Z AUTO 22003KT 9999 BKN035 13/12 Q1020 TEMPO BKN013
2018-04-24 01:00 - 1 - LFSB 232300Z AUTO VRB01KT 9999 OVC036 13/12 Q1020 NOSIG